Time;durP1;ratioP1;P1;durP2;ratioP2;P2;SDS_P1;SDS_P2;PMS_P1;PMS_P2;Temp;Humidity;BMP_temperature;BMP_pressure;BME280_temperature;BME280_humidity;BME280_pressure;Samples;Min_cycle;Max_cycle;Signal;HPM_P1;HPM_P2
2021/09/18 00:02:13;;;;;;;14.60;9.25;;;16.10;92.60;;;;;;4993821;28;20030;-90
2021/09/18 00:04:39;;;;;;;16.30;10.30;;;16.10;92.60;;;;;;4977728;28;20023;-91
2021/09/18 00:07:05;;;;;;;14.02;9.55;;;16.10;92.90;;;;;;4975340;28;20467;-89
2021/09/18 00:09:30;;;;;;;16.38;10.05;;;16.00;92.60;;;;;;4974787;28;20027;-89
2021/09/18 00:11:56;;;;;;;17.30;10.85;;;16.10;92.70;;;;;;4992981;28;20034;-89
2021/09/18 00:14:22;;;;;;;14.55;10.30;;;16.00;92.70;;;;;;4992285;28;20030;-87
2021/09/18 00:16:48;;;;;;;15.90;11.00;;;16.00;92.70;;;;;;4991862;28;20073;-87
2021/09/18 00:19:15;;;;;;;17.58;12.23;;;15.90;92.80;;;;;;4993632;28;20034;-88
2021/09/18 00:21:42;;;;;;;19.20;11.68;;;15.90;92.80;;;;;;5009278;28;20053;-87
2021/09/18 00:24:08;;;;;;;17.75;12.40;;;15.80;92.90;;;;;;4992501;28;20038;-87
2021/09/18 00:26:34;;;;;;;19.35;11.77;;;15.80;93.00;;;;;;4993603;28;20058;-88
2021/09/18 00:29:03;;;;;;;15.25;11.27;;;15.80;93.10;;;;;;4993268;28;20042;-88
2021/09/18 00:31:29;;;;;;;15.68;11.27;;;15.80;93.10;;;;;;4993234;28;20031;-87
2021/09/18 00:33:55;;;;;;;16.45;11.57;;;15.80;93.10;;;;;;4977081;28;20463;-89
2021/09/18 00:36:21;;;;;;;17.05;10.00;;;15.80;93.10;;;;;;4994844;28;20042;-91
2021/09/18 00:38:47;;;;;;;14.63;9.38;;;15.70;93.10;;;;;;4994889;28;20089;-89
2021/09/18 00:41:13;;;;;;;16.75;9.25;;;15.70;93.10;;;;;;4994509;28;20022;-90
2021/09/18 00:43:38;;;;;;;13.48;8.75;;;15.60;93.10;;;;;;4993232;28;20384;-89
2021/09/18 00:46:04;;;;;;;16.80;8.73;;;15.60;93.20;;;;;;4993732;28;20108;-90
2021/09/18 00:48:30;;;;;;;10.93;7.60;;;15.60;93.20;;;;;;4993393;28;20524;-88
2021/09/18 00:50:56;;;;;;;11.70;7.32;;;15.60;93.20;;;;;;4994794;28;20101;-89
2021/09/18 00:53:22;;;;;;;14.00;7.93;;;15.50;93.20;;;;;;4993968;28;20035;-88
2021/09/18 00:55:49;;;;;;;11.27;7.57;;;15.50;93.30;;;;;;4993510;28;20031;-88
2021/09/18 00:58:15;;;;;;;12.93;7.57;;;15.50;93.30;;;;;;4996919;28;20035;-89
2021/09/18 01:00:41;;;;;;;14.10;8.45;;;15.40;93.30;;;;;;4976745;28;20479;-88
2021/09/18 01:03:08;;;;;;;11.65;7.72;;;15.50;93.30;;;;;;4977059;28;20078;-87
2021/09/18 01:05:35;;;;;;;13.70;8.55;;;15.40;93.30;;;;;;4992984;28;20022;-87
2021/09/18 01:08:02;;;;;;;14.82;7.28;;;15.40;93.30;;;;;;4994662;28;20034;-87
2021/09/18 01:10:28;;;;;;;12.00;6.75;;;15.40;93.30;;;;;;4998023;28;20026;-88
2021/09/18 01:13:02;;;;;;;12.75;7.25;;;15.40;93.40;;;;;;4996374;28;20026;-88
2021/09/18 01:15:29;;;;;;;11.45;6.68;;;15.30;93.40;;;;;;5015809;28;20474;-88
2021/09/18 01:17:56;;;;;;;9.38;5.65;;;15.30;93.40;;;;;;4997408;28;20034;-88
2021/09/18 01:20:22;;;;;;;11.55;6.82;;;15.30;93.40;;;;;;4997969;28;20030;-89
2021/09/18 01:22:48;;;;;;;9.82;6.35;;;15.30;93.50;;;;;;5029512;28;20038;-88
2021/09/18 01:25:14;;;;;;;10.15;5.97;;;15.30;93.50;;;;;;4996763;28;20033;-89
2021/09/18 01:27:44;;;;;;;11.90;5.82;;;15.20;93.50;;;;;;5012790;28;20093;-89
2021/09/18 01:30:15;;;;;;;9.90;5.57;;;15.20;93.50;;;;;;5028773;28;20072;-92
2021/09/18 01:32:41;;;;;;;12.90;6.50;;;15.20;93.50;;;;;;5026841;28;20394;-90
2021/09/18 01:35:07;;;;;;;12.80;7.78;;;15.20;93.50;;;;;;5012684;28;20375;-88
2021/09/18 01:37:36;;;;;;;10.50;7.35;;;15.20;93.50;;;;;;4996653;28;20053;-90
2021/09/18 01:40:02;;;;;;;10.77;7.50;;;15.20;93.50;;;;;;4996620;28;20119;-89
2021/09/18 01:42:28;;;;;;;11.77;7.40;;;15.20;93.50;;;;;;5013191;28;20705;-89
2021/09/18 01:44:53;;;;;;;11.07;7.25;;;15.20;93.50;;;;;;4997946;28;20050;-87
2021/09/18 01:47:19;;;;;;;13.27;7.75;;;15.10;93.50;;;;;;5029786;28;20030;-89
2021/09/18 01:49:45;;;;;;;11.77;7.65;;;15.10;93.50;;;;;;4996119;28;20041;-87
2021/09/18 01:52:31;;;;;;;10.43;7.15;;;15.00;93.50;;;;;;4995647;28;20045;-86
2021/09/18 01:54:56;;;;;;;12.60;7.60;;;15.00;93.50;;;;;;4996602;28;20041;-87
2021/09/18 01:57:21;;;;;;;13.27;8.05;;;15.00;93.50;;;;;;4995652;28;20038;-87
2021/09/18 01:59:47;;;;;;;13.27;8.75;;;15.00;93.60;;;;;;4997084;28;20038;-86
2021/09/18 02:02:13;;;;;;;14.15;8.75;;;14.90;93.60;;;;;;4979182;28;20494;-90
2021/09/18 02:04:38;;;;;;;14.25;9.40;;;15.00;93.60;;;;;;4995623;28;20394;-88
2021/09/18 02:07:04;;;;;;;14.25;8.45;;;14.90;93.60;;;;;;4979678;28;20030;-90
2021/09/18 02:09:29;;;;;;;13.65;7.72;;;14.90;93.70;;;;;;4995675;28;20030;-85
2021/09/18 02:11:55;;;;;;;12.27;7.82;;;14.80;93.70;;;;;;4979154;28;20173;-87
2021/09/18 02:14:20;;;;;;;11.57;8.43;;;14.80;93.70;;;;;;4995473;28;20031;-87
2021/09/18 02:16:46;;;;;;;12.77;7.15;;;14.80;94.00;;;;;;4996838;28;20046;-86
2021/09/18 02:19:12;;;;;;;13.45;6.97;;;14.80;93.70;;;;;;4978586;28;20129;-87
2021/09/18 02:21:37;;;;;;;11.38;6.82;;;14.80;93.80;;;;;;4978367;28;20030;-87
2021/09/18 02:24:03;;;;;;;11.82;6.95;;;14.80;93.80;;;;;;4996213;28;20034;-87
2021/09/18 02:26:29;;;;;;;10.25;6.03;;;14.80;93.80;;;;;;4995237;28;20058;-87
2021/09/18 02:28:55;;;;;;;10.55;6.53;;;14.70;93.80;;;;;;4978986;28;20027;-89
2021/09/18 02:31:20;;;;;;;9.45;6.00;;;14.70;93.90;;;;;;4995444;28;20037;-88
2021/09/18 02:33:46;;;;;;;10.95;6.28;;;14.70;93.90;;;;;;4995367;28;20030;-88
2021/09/18 02:36:11;;;;;;;10.18;6.50;;;14.70;93.90;;;;;;4996227;28;20038;-88
2021/09/18 02:38:37;;;;;;;12.35;5.63;;;14.70;93.90;;;;;;4996069;28;20124;-89
2021/09/18 02:41:03;;;;;;;9.55;6.05;;;14.70;93.90;;;;;;5011143;28;20056;-87
2021/09/18 02:43:28;;;;;;;9.75;5.60;;;14.70;93.90;;;;;;5028264;28;20026;-87
2021/09/18 02:45:54;;;;;;;10.35;5.38;;;14.70;93.90;;;;;;5011239;28;20035;-87
2021/09/18 02:48:20;;;;;;;12.48;5.82;;;14.60;93.90;;;;;;5011194;28;20038;-86
2021/09/18 02:50:46;;;;;;;8.77;5.13;;;14.60;93.90;;;;;;4994489;28;20125;-87
2021/09/18 02:53:11;;;;;;;9.38;5.95;;;14.60;94.00;;;;;;4995730;28;20085;-86
2021/09/18 02:55:37;;;;;;;10.75;5.43;;;14.60;94.00;;;;;;4995831;28;20038;-85
2021/09/18 02:58:03;;;;;;;10.40;5.70;;;14.60;94.00;;;;;;4975145;28;20050;-88
2021/09/18 03:00:28;;;;;;;13.32;4.97;;;14.50;94.00;;;;;;4991668;28;20117;-84
2021/09/18 03:02:54;;;;;;;9.48;5.55;;;14.60;94.10;;;;;;5007502;28;20041;-86
2021/09/18 03:05:20;;;;;;;11.10;5.78;;;14.50;94.10;;;;;;5007639;28;20084;-88
2021/09/18 03:07:45;;;;;;;10.68;6.25;;;14.50;94.20;;;;;;4976109;28;20030;-88
2021/09/18 03:10:12;;;;;;;9.02;5.65;;;14.50;94.20;;;;;;4991424;28;20085;-87
2021/09/18 03:12:37;;;;;;;9.88;6.13;;;14.50;94.20;;;;;;5007447;28;20071;-90
2021/09/18 03:15:05;;;;;;;11.38;6.20;;;14.50;94.20;;;;;;4991375;28;20150;-89
2021/09/18 03:17:30;;;;;;;12.48;6.80;;;14.40;94.20;;;;;;4990960;28;20039;-89
2021/09/18 03:19:56;;;;;;;11.23;6.25;;;14.50;94.30;;;;;;5007490;28;20033;-87
2021/09/18 03:22:22;;;;;;;12.80;7.47;;;14.40;94.30;;;;;;5007292;28;20070;-89
2021/09/18 03:24:48;;;;;;;11.55;7.43;;;14.40;94.30;;;;;;5007435;28;20494;-89
2021/09/18 03:27:14;;;;;;;11.02;6.70;;;14.50;94.30;;;;;;4978587;28;20054;-91
2021/09/18 03:29:40;;;;;;;12.18;7.10;;;14.40;94.30;;;;;;4994392;28;20023;-91
2021/09/18 03:32:06;;;;;;;13.25;7.43;;;14.40;94.40;;;;;;4977524;28;20027;-88
2021/09/18 03:34:32;;;;;;;11.50;7.35;;;14.40;94.40;;;;;;4995173;28;20038;-89
2021/09/18 03:36:57;;;;;;;13.10;7.35;;;14.40;94.40;;;;;;4994677;28;20375;-87
2021/09/18 03:39:23;;;;;;;11.02;7.05;;;14.40;94.40;;;;;;4994114;28;20109;-87
2021/09/18 03:41:49;;;;;;;11.98;6.25;;;14.40;94.40;;;;;;4977963;28;20029;-90
2021/09/18 03:44:14;;;;;;;11.95;6.57;;;14.40;94.50;;;;;;4994096;28;20087;-90
2021/09/18 03:46:40;;;;;;;10.15;6.30;;;14.30;94.40;;;;;;4978062;28;20034;-91
2021/09/18 03:49:06;;;;;;;14.73;6.88;;;14.40;94.50;;;;;;5010209;28;20038;-88
2021/09/18 03:51:31;;;;;;;11.50;6.57;;;14.30;94.50;;;;;;4977900;28;20031;-87
2021/09/18 03:53:57;;;;;;;11.20;5.80;;;14.30;94.50;;;;;;4995011;28;20069;-87
2021/09/18 03:56:22;;;;;;;10.10;6.18;;;14.40;94.50;;;;;;4973993;28;20045;-89
2021/09/18 03:58:48;;;;;;;10.15;5.75;;;14.30;94.50;;;;;;5007380;28;20031;-90
2021/09/18 04:01:14;;;;;;;11.07;5.63;;;14.30;94.50;;;;;;4973963;28;20372;-88
2021/09/18 04:03:39;;;;;;;11.90;6.63;;;14.30;94.50;;;;;;5006575;28;20034;-87
2021/09/18 04:06:05;;;;;;;12.77;6.28;;;14.20;94.50;;;;;;4995984;28;20034;-85
2021/09/18 04:08:30;;;;;;;9.88;5.95;;;14.20;94.50;;;;;;4977057;28;20043;-87
2021/09/18 04:10:56;;;;;;;11.55;6.25;;;14.20;94.50;;;;;;4993352;28;20057;-89
2021/09/18 04:13:22;;;;;;;11.50;5.95;;;14.20;94.50;;;;;;4993960;28;20037;-88
2021/09/18 04:15:47;;;;;;;11.80;6.05;;;14.20;94.50;;;;;;4992538;28;20034;-88
2021/09/18 04:18:13;;;;;;;11.77;6.28;;;14.20;94.60;;;;;;4988896;28;20030;-88
2021/09/18 04:20:41;;;;;;;11.38;6.57;;;14.10;94.50;;;;;;4991974;28;20422;-88
2021/09/18 04:23:07;;;;;;;10.88;6.32;;;14.10;94.60;;;;;;4993697;28;20044;-88
2021/09/18 04:25:33;;;;;;;12.07;6.35;;;14.10;94.60;;;;;;4993600;28;20429;-88
2021/09/18 04:27:58;;;;;;;12.43;7.07;;;14.10;94.70;;;;;;4973735;28;20474;-88
2021/09/18 04:30:24;;;;;;;15.10;8.18;;;14.10;94.70;;;;;;4990309;28;20034;-87
2021/09/18 04:32:50;;;;;;;13.07;7.50;;;14.10;94.70;;;;;;4989553;28;20150;-87
2021/09/18 04:35:15;;;;;;;14.07;8.93;;;14.00;94.70;;;;;;5006231;28;20387;-86
2021/09/18 04:37:41;;;;;;;15.27;8.90;;;14.00;94.80;;;;;;4973120;28;20046;-86
2021/09/18 04:40:07;;;;;;;15.55;8.35;;;14.00;94.80;;;;;;5006447;28;20121;-86
2021/09/18 04:42:33;;;;;;;15.70;8.20;;;14.10;94.90;;;;;;4999109;28;20042;-87
2021/09/18 04:44:59;;;;;;;16.33;9.07;;;14.00;94.90;;;;;;5023181;28;20030;-85
2021/09/18 04:47:24;;;;;;;17.30;9.90;;;14.00;94.90;;;;;;5028339;28;20038;-87
2021/09/18 04:49:50;;;;;;;15.52;9.38;;;14.00;94.90;;;;;;5013591;28;20041;-88
2021/09/18 04:52:16;;;;;;;16.52;8.98;;;14.00;95.00;;;;;;5029511;28;20034;-88
2021/09/18 04:54:41;;;;;;;15.88;9.57;;;14.00;95.00;;;;;;4997972;28;20109;-87
2021/09/18 04:57:07;;;;;;;16.73;9.93;;;14.00;95.10;;;;;;5012181;28;20050;-86
2021/09/18 04:59:32;;;;;;;16.45;9.65;;;13.90;95.10;;;;;;5013056;28;20475;-86
2021/09/18 05:01:58;;;;;;;16.05;9.82;;;13.90;95.10;;;;;;5029056;28;20093;-87
2021/09/18 05:04:24;;;;;;;17.80;10.63;;;13.90;95.10;;;;;;5012810;28;20026;-86
2021/09/18 05:06:49;;;;;;;17.77;10.55;;;13.90;95.20;;;;;;4996597;28;20023;-89
2021/09/18 05:09:15;;;;;;;17.52;11.20;;;13.90;95.20;;;;;;5013146;28;20030;-87
2021/09/18 05:11:40;;;;;;;18.13;10.95;;;13.90;95.30;;;;;;4997274;28;20446;-83
2021/09/18 05:14:06;;;;;;;20.20;11.77;;;13.90;95.30;;;;;;5028917;28;20031;-86
2021/09/18 05:16:32;;;;;;;16.92;10.88;;;13.90;95.30;;;;;;4996715;28;20479;-88
2021/09/18 05:18:57;;;;;;;20.70;11.30;;;13.90;95.30;;;;;;5029040;28;20054;-86
2021/09/18 05:21:23;;;;;;;21.23;10.85;;;13.90;95.30;;;;;;5028799;28;20038;-84
2021/09/18 05:23:49;;;;;;;21.17;12.40;;;13.90;95.40;;;;;;4997530;28;20030;-88
2021/09/18 05:26:16;;;;;;;20.85;11.63;;;13.90;95.40;;;;;;5029041;28;20062;-88
2021/09/18 05:28:41;;;;;;;21.25;12.48;;;13.90;95.50;;;;;;4996450;28;20153;-87
2021/09/18 05:31:07;;;;;;;21.80;12.70;;;13.80;95.40;;;;;;4996877;28;20625;-86
2021/09/18 05:33:33;;;;;;;19.58;12.13;;;13.90;95.50;;;;;;4995949;28;20033;-86
2021/09/18 05:35:58;;;;;;;23.13;12.73;;;13.90;95.50;;;;;;4976181;28;20165;-87
2021/09/18 05:38:24;;;;;;;22.58;13.35;;;13.90;95.50;;;;;;4984486;28;20386;-86
2021/09/18 05:40:50;;;;;;;20.83;12.30;;;13.90;95.50;;;;;;4995958;28;20393;-85
2021/09/18 05:43:15;;;;;;;23.70;13.07;;;13.90;95.50;;;;;;5011705;28;20053;-87
2021/09/18 05:45:41;;;;;;;20.60;13.07;;;13.90;95.50;;;;;;4997265;28;20026;-89
2021/09/18 05:48:07;;;;;;;24.73;14.93;;;13.90;95.60;;;;;;4997110;28;20026;-84
2021/09/18 05:50:33;;;;;;;19.98;13.30;;;13.90;95.60;;;;;;5012046;28;20122;-85
2021/09/18 05:52:59;;;;;;;21.45;12.70;;;13.90;95.60;;;;;;4976842;28;20046;-87
2021/09/18 05:55:25;;;;;;;21.38;13.13;;;13.90;95.60;;;;;;4993201;28;20031;-89
2021/09/18 05:57:50;;;;;;;18.77;12.60;;;14.00;95.60;;;;;;4978253;28;20039;-89
2021/09/18 06:00:16;;;;;;;20.70;13.63;;;14.00;95.60;;;;;;5010887;28;20550;-85
2021/09/18 06:02:43;;;;;;;20.25;13.52;;;14.00;95.60;;;;;;4977528;28;20040;-85
2021/09/18 06:05:10;;;;;;;19.17;12.40;;;13.90;95.60;;;;;;5008780;28;20394;-86
2021/09/18 06:07:36;;;;;;;17.85;12.25;;;14.00;95.70;;;;;;4993061;28;20030;-84
2021/09/18 06:10:04;;;;;;;18.55;12.20;;;14.00;95.70;;;;;;4996415;28;20040;-83
2021/09/18 06:12:30;;;;;;;20.10;13.05;;;14.00;95.70;;;;;;4995154;28;20025;-85
2021/09/18 06:14:56;;;;;;;18.95;12.80;;;14.00;95.70;;;;;;4991177;28;20768;-85
2021/09/18 06:17:22;;;;;;;18.23;12.05;;;14.00;95.70;;;;;;4992896;28;20049;-84
2021/09/18 06:19:47;;;;;;;19.30;12.38;;;14.10;95.80;;;;;;4994572;28;20030;-85
2021/09/18 06:22:13;;;;;;;20.05;13.57;;;14.10;95.80;;;;;;4996626;28;20485;-85
2021/09/18 06:24:40;;;;;;;22.92;13.45;;;14.10;95.80;;;;;;5011488;28;20030;-87
2021/09/18 06:27:06;;;;;;;23.83;13.20;;;14.20;95.80;;;;;;5004397;28;20058;-84
2021/09/18 06:29:31;;;;;;;26.45;13.95;;;14.20;95.80;;;;;;4993877;28;20496;-85
2021/09/18 06:31:57;;;;;;;19.52;13.50;;;14.20;95.80;;;;;;4993720;28;20483;-85
2021/09/18 06:34:23;;;;;;;21.35;13.20;;;14.30;95.90;;;;;;4995857;28;20486;-85
2021/09/18 06:36:49;;;;;;;31.58;14.73;;;14.30;96.00;;;;;;4994671;28;20137;-83
2021/09/18 06:39:14;;;;;;;50.78;14.02;;;14.30;95.90;;;;;;4975874;28;20033;-84
2021/09/18 06:41:41;;;;;;;40.17;14.43;;;14.40;96.00;;;;;;4999118;28;20026;-85
2021/09/18 06:44:06;;;;;;;25.17;13.48;;;14.40;96.00;;;;;;5002242;28;20018;-86
2021/09/18 06:46:32;;;;;;;29.23;13.00;;;14.50;96.00;;;;;;4994206;28;20049;-86
2021/09/18 06:48:58;;;;;;;41.47;13.48;;;14.60;96.30;;;;;;4993935;28;20069;-84
2021/09/18 06:51:24;;;;;;;39.55;13.52;;;14.60;96.10;;;;;;4994522;28;20058;-85
2021/09/18 06:53:50;;;;;;;22.48;13.50;;;14.70;96.10;;;;;;4994146;28;20030;-83
2021/09/18 06:56:16;;;;;;;21.02;12.77;;;14.80;96.20;;;;;;4993024;28;20050;-85
2021/09/18 06:58:44;;;;;;;43.33;12.00;;;14.80;96.20;;;;;;4993963;28;20038;-84
2021/09/18 07:01:10;;;;;;;24.38;11.73;;;14.90;96.20;;;;;;4983436;28;20035;-85
2021/09/18 07:03:36;;;;;;;18.85;12.27;;;15.00;96.30;;;;;;4990334;28;20023;-85
2021/09/18 07:06:02;;;;;;;16.73;11.73;;;15.10;96.30;;;;;;4973595;28;20471;-84
2021/09/18 07:08:27;;;;;;;18.25;12.00;;;15.10;96.20;;;;;;4990341;28;20031;-85
2021/09/18 07:10:53;;;;;;;16.48;11.88;;;15.20;96.20;;;;;;4990250;28;20638;-84
2021/09/18 07:13:19;;;;;;;18.15;12.25;;;15.20;96.20;;;;;;4990558;28;20039;-85
2021/09/18 07:15:45;;;;;;;16.60;11.82;;;15.30;96.20;;;;;;4988134;28;20474;-85
2021/09/18 07:18:10;;;;;;;16.17;11.73;;;15.40;96.20;;;;;;5005330;28;20139;-84
2021/09/18 07:20:36;;;;;;;16.13;11.80;;;15.50;96.20;;;;;;4992842;28;20029;-84
2021/09/18 07:23:02;;;;;;;18.30;12.98;;;15.60;96.10;;;;;;4992757;28;20038;-82
2021/09/18 07:25:28;;;;;;;16.98;11.98;;;15.60;96.00;;;;;;5025365;28;20034;-85
2021/09/18 07:27:54;;;;;;;16.70;12.45;;;15.70;96.00;;;;;;4993793;28;20046;-84
2021/09/18 07:30:20;;;;;;;19.83;11.93;;;15.80;95.90;;;;;;4991667;28;20059;-84
2021/09/18 07:32:45;;;;;;;16.05;11.07;;;15.80;95.80;;;;;;4991764;28;20034;-84
2021/09/18 07:35:11;;;;;;;21.45;12.52;;;15.90;95.80;;;;;;4976690;28;20031;-84
2021/09/18 07:37:38;;;;;;;15.70;11.20;;;16.00;95.80;;;;;;4988837;28;20049;-83
2021/09/18 07:40:09;;;;;;;16.85;12.50;;;16.10;95.70;;;;;;4976934;28;20030;-84
2021/09/18 07:42:35;;;;;;;27.85;12.35;;;16.10;95.60;;;;;;4993891;28;20470;-84
2021/09/18 07:45:02;;;;;;;16.15;11.65;;;16.20;95.60;;;;;;4977006;28;20035;-83
2021/09/18 07:47:27;;;;;;;22.10;12.35;;;16.30;95.50;;;;;;4992674;28;20061;-84
2021/09/18 07:49:53;;;;;;;19.83;13.40;;;16.30;95.40;;;;;;4993678;28;20395;-84
2021/09/18 07:52:19;;;;;;;20.92;11.57;;;16.40;95.40;;;;;;4992940;28;20038;-83
2021/09/18 07:54:44;;;;;;;18.45;12.93;;;16.50;95.40;;;;;;4976436;28;20475;-84
2021/09/18 07:57:10;;;;;;;18.65;13.23;;;16.50;95.40;;;;;;5008881;28;20121;-84
2021/09/18 07:59:36;;;;;;;20.27;13.68;;;16.50;95.40;;;;;;4992730;28;20031;-84
2021/09/18 08:02:01;;;;;;;17.65;12.30;;;16.60;95.30;;;;;;5025351;28;20149;-84
2021/09/18 08:04:28;;;;;;;17.08;12.07;;;16.70;95.20;;;;;;4993980;28;20051;-85
2021/09/18 08:06:54;;;;;;;17.75;13.60;;;16.70;95.10;;;;;;4993783;28;20058;-83
2021/09/18 08:09:19;;;;;;;16.73;12.85;;;16.80;95.00;;;;;;4992564;28;20463;-85
2021/09/18 08:11:45;;;;;;;17.00;12.50;;;16.80;95.00;;;;;;4991334;28;20630;-85
2021/09/18 08:14:11;;;;;;;17.83;11.98;;;16.80;94.90;;;;;;4992468;28;20034;-84
2021/09/18 08:16:38;;;;;;;16.70;11.57;;;16.90;94.80;;;;;;4992985;28;20782;-85
2021/09/18 08:19:03;;;;;;;19.10;12.85;;;16.90;94.80;;;;;;4992910;28;20030;-85
2021/09/18 08:21:29;;;;;;;16.58;13.15;;;17.00;94.70;;;;;;4993782;28;20090;-85
2021/09/18 08:23:55;;;;;;;17.52;13.27;;;17.00;94.60;;;;;;5007935;28;20483;-84
2021/09/18 08:26:27;;;;;;;18.75;13.68;;;17.10;94.50;;;;;;4988685;28;20035;-85
2021/09/18 08:28:53;;;;;;;18.20;13.57;;;17.10;94.60;;;;;;4983294;28;20031;-86
2021/09/18 08:31:18;;;;;;;17.15;13.35;;;17.20;94.40;;;;;;4981191;28;20034;-85
2021/09/18 08:33:44;;;;;;;17.98;14.13;;;17.20;94.40;;;;;;4971805;28;20026;-86
2021/09/18 08:36:09;;;;;;;18.35;13.98;;;17.30;94.30;;;;;;4999670;28;20022;-85
2021/09/18 08:38:35;;;;;;;19.30;14.43;;;17.30;94.30;;;;;;4967747;28;20023;-85
2021/09/18 08:41:01;;;;;;;18.65;14.52;;;17.40;94.20;;;;;;4985355;28;20034;-86
2021/09/18 08:43:26;;;;;;;19.25;14.75;;;17.50;94.20;;;;;;4996101;28;20550;-86
2021/09/18 08:45:53;;;;;;;17.10;13.77;;;17.60;94.20;;;;;;4967319;28;20031;-85
2021/09/18 08:48:19;;;;;;;18.45;14.90;;;17.70;94.20;;;;;;4983214;28;20046;-86
2021/09/18 08:50:45;;;;;;;19.05;14.57;;;17.90;94.20;;;;;;4966699;28;20027;-86
2021/09/18 08:53:11;;;;;;;19.17;14.30;;;18.10;94.10;;;;;;5014012;28;20483;-85
2021/09/18 08:55:37;;;;;;;19.05;14.75;;;18.20;93.90;;;;;;4984428;28;20058;-86
2021/09/18 08:58:03;;;;;;;18.00;13.73;;;18.30;93.80;;;;;;4987443;28;20030;-85
2021/09/18 09:00:34;;;;;;;17.70;13.73;;;18.40;93.60;;;;;;4992192;28;20034;-87
2021/09/18 09:03:02;;;;;;;16.48;12.07;;;18.60;93.40;;;;;;4991441;28;20076;-85
2021/09/18 09:05:30;;;;;;;15.93;12.65;;;18.70;93.20;;;;;;4992033;28;20030;-86
2021/09/18 09:08:05;;;;;;;17.63;13.48;;;18.80;93.00;;;;;;4991524;28;20018;-85
2021/09/18 09:10:31;;;;;;;17.27;13.60;;;18.80;92.80;;;;;;4983092;28;20023;-84
2021/09/18 09:13:08;;;;;;;16.77;12.45;;;18.90;92.60;;;;;;4983940;28;20019;-86
2021/09/18 09:15:34;;;;;;;17.48;13.48;;;19.00;92.50;;;;;;5018281;28;20030;-85
2021/09/18 09:18:25;;;;;;;15.02;12.82;;;19.00;92.30;;;;;;4976171;28;20042;-86
2021/09/18 09:21:10;;;;;;;15.80;12.02;;;19.10;92.20;;;;;;4991760;28;20041;-85
2021/09/18 09:23:36;;;;;;;15.35;11.68;;;19.10;92.10;;;;;;5008972;28;20410;-86
2021/09/18 09:26:07;;;;;;;14.82;11.68;;;19.20;92.00;;;;;;4993039;28;20080;-86
2021/09/18 09:28:41;;;;;;;13.48;11.52;;;19.20;91.80;;;;;;5008014;28;20038;-85
2021/09/18 09:31:17;;;;;;;14.70;11.73;;;19.30;91.70;;;;;;5010626;28;20084;-84
2021/09/18 09:34:19;;;;;;;14.48;11.25;;;19.40;91.60;;;;;;4996179;28;20057;-85
2021/09/18 09:36:52;;;;;;;15.68;12.10;;;19.40;91.50;;;;;;4995670;28;20510;-86
2021/09/18 09:39:22;;;;;;;;;;;19.50;91.20;;;;;;4997270;28;20041;-86
2021/09/18 09:41:49;;;;;;;12.35;9.70;;;19.50;91.10;;;;;;4996262;28;20423;-86
2021/09/18 09:44:17;;;;;;;14.48;11.27;;;19.60;91.10;;;;;;4994816;28;20041;-85
2021/09/18 09:46:43;;;;;;;16.75;10.38;;;19.60;91.00;;;;;;4980329;28;20018;-85
2021/09/18 09:49:16;;;;;;;16.35;10.98;;;19.60;90.80;;;;;;5019100;28;20028;-84
2021/09/18 09:51:43;;;;;;;14.90;12.10;;;19.70;90.80;;;;;;4977129;28;20443;-86
2021/09/18 09:54:22;;;;;;;15.45;12.30;;;19.80;90.60;;;;;;4982867;28;20031;-86
2021/09/18 09:57:03;;;;;;;14.10;11.10;;;20.00;90.50;;;;;;4993085;28;20042;-85
2021/09/18 09:59:29;;;;;;;17.13;14.45;;;20.20;90.30;;;;;;4995651;28;20097;-84
2021/09/18 10:01:55;;;;;;;17.92;14.35;;;20.40;89.80;;;;;;4995827;28;20026;-83
2021/09/18 10:04:23;;;;;;;14.25;12.18;;;20.80;89.60;;;;;;4993836;28;20029;-85
2021/09/18 10:06:49;;;;;;;15.63;12.20;;;21.20;89.60;;;;;;4996532;28;20442;-86
2021/09/18 10:09:18;;;;;;;15.20;10.85;;;21.70;89.70;;;;;;5027958;28;20070;-86
2021/09/18 10:11:45;;;;;;;12.80;10.45;;;22.20;89.50;;;;;;4996218;28;20497;-86
2021/09/18 10:14:19;;;;;;;12.35;9.48;;;22.80;89.10;;;;;;5012127;28;20043;-91
2021/09/18 10:16:46;;;;;;;11.82;9.27;;;23.50;87.90;;;;;;5010389;28;20030;-85
2021/09/18 10:19:12;;;;;;;11.57;8.55;;;23.90;86.70;;;;;;4993735;28;20034;-89
2021/09/18 10:24:24;;;;;;;10.98;7.57;;;24.30;82.60;;;;;;4978607;28;20054;-89
2021/09/18 10:27:18;;;;;;;12.32;9.25;;;24.40;80.90;;;;;;4979478;28;20046;-88
2021/09/18 10:29:44;;;;;;;10.55;8.82;;;24.40;78.30;;;;;;4987663;28;20034;-93
2021/09/18 10:32:09;;;;;;;13.48;10.38;;;24.50;78.20;;;;;;5011437;28;20471;-89
2021/09/18 10:34:35;;;;;;;11.15;9.25;;;24.50;76.80;;;;;;4996132;28;20077;-92
2021/09/18 10:37:01;;;;;;;10.32;8.38;;;24.60;75.70;;;;;;4980134;28;20125;-91
2021/09/18 10:39:27;;;;;;;10.60;7.88;;;24.60;74.80;;;;;;4996900;28;20038;-93
2021/09/18 10:41:56;;;;;;;10.30;7.75;;;24.60;74.10;;;;;;4979774;28;20027;-92
2021/09/18 10:44:25;;;;;;;12.77;9.68;;;24.60;73.40;;;;;;4995379;28;20023;-90
2021/09/18 10:46:59;;;;;;;12.10;9.20;;;24.70;73.00;;;;;;4989835;28;20026;-90
2021/09/18 10:49:37;;;;;;;14.40;12.07;;;24.80;72.50;;;;;;4986467;28;20035;-89
2021/09/18 10:52:28;;;;;;;14.23;11.98;;;24.90;71.80;;;;;;4986936;28;20109;-87
2021/09/18 10:55:08;;;;;;;16.52;12.55;;;25.00;70.40;;;;;;4968155;28;20046;-90
2021/09/18 10:57:45;;;;;;;14.57;10.88;;;25.20;70.00;;;;;;4990317;28;20038;-91
2021/09/18 11:00:20;;;;;;;13.38;10.50;;;25.40;69.70;;;;;;4985070;28;20035;-88
2021/09/18 11:02:50;;;;;;;13.80;10.75;;;25.60;69.00;;;;;;4986005;28;20025;-93
2021/09/18 11:05:22;;;;;;;13.45;11.25;;;25.80;68.10;;;;;;5017254;28;20038;-95
2021/09/18 11:08:11;;;;;;;10.88;8.70;;;26.20;67.70;;;;;;5003314;28;20133;-90
2021/09/18 11:10:51;;;;;;;10.73;8.73;;;26.60;67.50;;;;;;5008084;28;20221;-88
2021/09/18 11:13:18;;;;;;;11.00;9.25;;;26.80;66.40;;;;;;4992967;28;20022;-89
2021/09/18 11:15:52;;;;;;;13.60;11.30;;;26.90;66.30;;;;;;4979022;28;20391;-90
2021/09/18 11:19:00;;;;;;;12.45;10.02;;;27.00;65.60;;;;;;4993916;28;20045;-91
2021/09/18 11:21:52;;;;;;;11.32;9.20;;;27.20;63.90;;;;;;4957402;28;20034;-87
2021/09/18 11:24:19;;;;;;;11.05;9.07;;;27.30;63.40;;;;;;5006706;28;20096;-89
2021/09/18 11:26:49;;;;;;;12.02;9.57;;;27.50;64.00;;;;;;4995052;28;20467;-91
2021/09/18 11:29:30;;;;;;;11.45;10.25;;;27.60;62.40;;;;;;4993898;28;20074;-90
2021/09/18 11:32:04;;;;;;;10.50;8.15;;;27.70;61.50;;;;;;4994980;28;20034;-90
2021/09/18 11:34:40;;;;;;;11.27;9.25;;;27.90;60.90;;;;;;4995989;28;20054;-88
2021/09/18 11:37:09;;;;;;;10.25;7.05;;;28.00;60.00;;;;;;4994232;28;20049;-90
2021/09/18 11:39:41;;;;;;;9.18;7.75;;;28.20;59.60;;;;;;4995186;28;20446;-88
2021/09/18 11:42:21;;;;;;;9.75;8.07;;;28.30;58.80;;;;;;4994998;28;20097;-87
2021/09/18 11:44:51;;;;;;;9.45;7.47;;;28.40;58.60;;;;;;4991810;28;20113;-86
2021/09/18 11:47:48;;;;;;;8.50;6.97;;;28.60;58.20;;;;;;4993862;28;20023;-88
2021/09/18 11:50:28;;;;;;;13.15;9.07;;;28.70;56.90;;;;;;4993202;28;20491;-87
2021/09/18 11:52:59;;;;;;;10.05;7.72;;;28.90;56.40;;;;;;4993756;28;20125;-88
2021/09/18 11:55:32;;;;;;;10.32;8.55;;;29.00;56.50;;;;;;4993802;28;20037;-89
2021/09/18 11:58:11;;;;;;;11.43;9.32;;;29.10;56.30;;;;;;4994888;28;20038;-89
2021/09/18 12:00:42;;;;;;;11.65;10.02;;;29.20;55.70;;;;;;4993235;28;20018;-88
2021/09/18 12:03:08;;;;;;;14.27;11.68;;;29.30;56.50;;;;;;4994154;28;20052;-89
2021/09/18 12:05:34;;;;;;;13.77;10.82;;;29.50;55.60;;;;;;5027480;28;20523;-89
2021/09/18 12:08:09;;;;;;;12.30;9.18;;;29.50;55.30;;;;;;4995498;28;20034;-87
2021/09/18 12:10:35;;;;;;;11.13;8.35;;;29.60;54.70;;;;;;4993590;28;20521;-87
2021/09/18 12:13:09;;;;;;;12.23;9.70;;;29.70;54.70;;;;;;4993745;28;20027;-88
2021/09/18 12:15:39;;;;;;;12.32;9.95;;;29.80;54.10;;;;;;4993195;28;20037;-88
2021/09/18 12:18:07;;;;;;;9.85;7.75;;;29.90;53.80;;;;;;4994311;28;20030;-89
2021/09/18 12:20:33;;;;;;;9.52;7.80;;;30.00;53.50;;;;;;4976247;28;20045;-89
2021/09/18 12:22:59;;;;;;;10.20;8.45;;;30.00;53.00;;;;;;4992427;28;20043;-88
2021/09/18 12:25:29;;;;;;;10.65;8.65;;;30.20;52.80;;;;;;4960022;28;20502;-87
2021/09/18 12:27:58;;;;;;;12.98;9.70;;;30.20;52.50;;;;;;4992123;28;20054;-87
2021/09/18 12:30:27;;;;;;;12.75;9.60;;;30.40;52.50;;;;;;4992186;28;20037;-87
2021/09/18 12:33:13;;;;;;;9.93;8.40;;;30.50;52.20;;;;;;4960700;28;20180;-88
2021/09/18 12:35:42;;;;;;;12.30;8.75;;;30.60;51.50;;;;;;4979115;28;20173;-88
2021/09/18 12:38:09;;;;;;;11.57;8.32;;;30.70;51.80;;;;;;4992299;28;20530;-89
2021/09/18 12:40:54;;;;;;;12.02;9.40;;;30.80;51.50;;;;;;4976664;28;20391;-89